Terminal Aerodrome Forecast
Issued by NWS Missoula, MT

Home | Current Version | Previous Version | Text Only | Print | Product List | Glossary On
Versions: 1 2 3 4 5 6 7 8 9 10 11 12 13 14 15 16 17 18 19
000
FTUS45 KMSO 260317 AAC
TAFMSO
TAF AMD
KMSO 260317Z 2603/2624 32005KT 2SM -SN BR BKN010 OVC015
      TEMPO 2603/2606 1SM -SN BKN005
     FM261400 VRB04KT 3SM -RASN BR SCT003 OVC020
     FM261800 VRB04KT P6SM -RA BKN020 OVC040=

USA.gov is the U.S. government's official web portal to all federal, state and local government web resources and services.